Genco Leader — VRYR8 — position and weather

sailwx.info

Track history (hours):
 
Tides and Currents Weather Stations Pressure Air Temp Water Temp Dewpoint Dewpoint Depression Visibility Wind Speed Wind Dir Waves Ship Positions

Genco Leader

Last reported at 2016-Dec-10 10:18 UTC. Time now 2017-May-24 02:06 UTC.
Position N 39°59' E 119°50'.
Warning: this ship's position is months out of date.

Length 225 m; draft 6.2 m.

Type: Cargo ship. MMSI: 477132000.

Date/timePositionNaut miles runAvg speedWind from/ knotsBaromVisibWave heightAir tempDewpointWater temp
2016-Dec-10 10:18N 39°59' E 119°50'0 0.0
2016-Dec-10 09:30N 39°59' E 119°50'0 0.0
2016-Dec-10 08:32N 39°59' E 119°50'0 0.0
2016-Dec-10 07:32N 39°59' E 119°50'0 0.0
2016-Dec-10 06:20N 39°59' E 119°50'0 0.0
2016-Dec-10 05:32N 39°59' E 119°50'0 0.0
2016-Dec-10 04:08N 39°59' E 119°50'0 0.0
2016-Dec-10 03:26N 39°59' E 119°50'0 0.0
2016-Dec-10 02:32N 39°59' E 119°50'0 0.0
2016-Dec-10 01:32N 39°59' E 119°50'0 0.0
2016-Dec-10 00:32N 39°59' E 119°50'0 0.0
2016-Dec-09 23:32N 39°59' E 119°50'0 0.0
2016-Dec-09 22:32N 39°59' E 119°50'0 0.0
2016-Dec-09 21:26N 39°59' E 119°50'0 0.0
2016-Dec-09 20:32N 39°59' E 119°50'0 0.0
2016-Dec-09 19:32N 39°59' E 119°50'0 0.0
2016-Dec-09 18:32N 39°59' E 119°50'0 0.0
2016-Dec-09 17:32N 39°59' E 119°50'0 0.0
2016-Dec-09 16:32N 39°59' E 119°50'0 0.0
2016-Dec-09 15:26N 39°59' E 119°50'0 0.0
2016-Dec-09 14:32N 39°59' E 119°50'0 0.0
2016-Dec-09 13:32N 39°59' E 119°50'0 0.0
2016-Dec-09 11:32N 39°59' E 119°50'0 0.0
2016-Dec-09 10:32N 39°59' E 119°50'0 0.0
2016-Dec-09 09:32N 39°59' E 119°50'0 0.0
2016-Dec-09 08:32N 39°59' E 119°50'0 0.0
2016-Dec-09 07:26N 39°59' E 119°50'0 0.0
2016-Dec-08 02:33N 39°59' E 119°50'0 0.0
2016-Dec-08 01:28N 39°59' E 119°50'0 0.0
2016-Dec-08 00:33N 39°59' E 119°50'0 0.0
2016-Dec-07 23:27N 39°59' E 119°50'0 0.0
2016-Dec-07 22:33N 39°59' E 119°50'0 0.0
2016-Dec-07 21:33N 39°59' E 119°50'0 0.0
2016-Dec-07 20:33N 39°59' E 119°50'0 0.0
2016-Dec-07 19:33N 39°59' E 119°50'0 0.0
2016-Dec-07 18:33N 39°59' E 119°50'0 0.0
2016-Dec-07 17:33N 39°59' E 119°50'0 0.0
2016-Dec-07 16:27N 39°59' E 119°50'0 0.0
2016-Dec-07 15:33N 39°59' E 119°50'0 0.0
2016-Dec-07 14:33N 39°59' E 119°50'0 0.0
2016-Dec-07 11:10N 39°59' E 119°50'0 0.0
2016-Dec-07 10:21N 39°59' E 119°50'0 0.0
2016-Dec-07 07:30N 39°59' E 119°50'0 0.0
2016-Dec-07 06:30N 39°59' E 119°50'0 0.1
2016-Dec-07 05:33N 39°59' E 119°50'3 2.9
2016-Dec-07 04:33N 39°56' E 119°50'1 0.9
2016-Dec-07 03:33N 39°55' E 119°51'0 0.0
2016-Dec-07 02:33N 39°55' E 119°51'0 0.4
2016-Dec-07 01:33N 39°55' E 119°51'4 4.2
2016-Dec-07 00:33N 39°51' E 119°54'10 9.5
2016-Dec-06 23:33N 39°44' E 120°01'7911.0
2016-Dec-06 16:22N 38°37' E 120°56'8 9.9
2016-Dec-06 15:32N 38°32' E 121°05'10 9.9
2016-Dec-06 14:32N 38°27' E 121°16'10710.3
2016-Dec-06 04:06N 37°12' E 122°53'712.2
2016-Dec-06 03:31N 37°05' E 122°53'1212.4
2016-Dec-06 02:33N 36°53' E 122°53'341 9.1
2016-Dec-04 13:08N 31°15' E 121°55'914.8
2016-Dec-04 12:33N 31°18' E 121°46'1212.2
2016-Dec-04 11:34N 31°24' E 121°33'9 9.4
2016-Dec-04 10:33N 31°30' E 121°25'1110.7
2016-Dec-04 09:34N 31°37' E 121°16'6 5.1
2016-Dec-04 08:29N 31°41' E 121°11'0 0.0
2016-Dec-04 07:32N 31°41' E 121°11'0 0.0
2016-Dec-04 06:32N 31°41' E 121°11'0 0.0
2016-Dec-04 05:32N 31°41' E 121°11'0 0.0
2016-Dec-04 04:32N 31°41' E 121°11'0 0.0
2016-Dec-04 03:32N 31°41' E 121°11'0 0.0
2016-Dec-04 02:32N 31°41' E 121°11'0 0.0
2016-Dec-04 01:32N 31°41' E 121°11'0 0.0
2016-Dec-04 00:32N 31°41' E 121°11'0 0.0
2016-Dec-03 23:29N 31°41' E 121°11'0 0.0
2016-Dec-03 22:32N 31°41' E 121°11'0 0.0
2016-Dec-03 21:29N 31°41' E 121°11'0 0.0
2016-Dec-03 20:32N 31°41' E 121°11'0 0.0
2016-Dec-03 19:26N 31°41' E 121°11'0 0.0
2016-Dec-03 18:32N 31°41' E 121°11'0 0.0
2016-Dec-03 17:32N 31°41' E 121°11'0 0.0
2016-Dec-03 16:29N 31°41' E 121°11'0 0.0
2016-Dec-03 15:26N 31°41' E 121°11'0 0.0
2016-Dec-03 14:29N 31°41' E 121°11'0 0.0
2016-Dec-03 13:32N 31°41' E 121°11'0 0.0
2016-Dec-03 12:32N 31°41' E 121°11'0 0.0
2016-Dec-03 11:29N 31°41' E 121°11'0 0.0
2016-Dec-03 10:32N 31°41' E 121°11'0 0.0
2016-Dec-03 09:29N 31°41' E 121°11'0 0.0
2016-Dec-03 08:23N 31°41' E 121°11'0 0.0
2016-Dec-03 07:12N 31°41' E 121°11'0 0.0
2016-Dec-03 06:30N 31°41' E 121°11'0 0.0
2016-Dec-03 04:29N 31°41' E 121°11'0 0.0
2016-Dec-03 03:29N 31°41' E 121°11'0 0.0
2016-Dec-03 02:32N 31°41' E 121°11'0 0.0
2016-Dec-03 01:32N 31°41' E 121°11'0 0.0
2016-Dec-03 00:33N 31°41' E 121°11'0 0.0
2016-Dec-02 23:32N 31°41' E 121°11'0 0.0
2016-Dec-02 22:29N 31°41' E 121°11'0 0.0
2016-Dec-02 21:32N 31°41' E 121°11'0 0.0
2016-Dec-02 20:32N 31°41' E 121°11'0 0.0
2016-Dec-02 19:33N 31°41' E 121°11'0 0.0
2016-Dec-02 18:29N 31°41' E 121°11'0 0.0
2016-Dec-02 17:32N 31°41' E 121°11'0 0.0
2016-Dec-02 16:32N 31°41' E 121°11'0 0.0
2016-Dec-02 15:32N 31°41' E 121°11'0 0.0
2016-Dec-02 08:30N 31°41' E 121°11'0 0.0
2016-Dec-02 07:21N 31°41' E 121°11'0 0.0
2016-Dec-02 06:30N 31°41' E 121°11'0 0.0
2016-Dec-02 05:30N 31°41' E 121°11'5 4.8
2016-Dec-02 04:33N 31°38' E 121°15'4 3.9
2016-Dec-02 03:30N 31°36' E 121°19'0 0.0
2016-Dec-02 02:30N 31°36' E 121°19'0 0.0
2016-Dec-02 01:33N 31°36' E 121°19'0 0.0
2016-Dec-02 00:33N 31°36' E 121°19'0 0.0
2016-Dec-01 23:33N 31°36' E 121°19'0 0.0
2016-Dec-01 22:30N 31°36' E 121°19'0 0.0
2016-Dec-01 21:30N 31°36' E 121°19'0 0.1
2016-Dec-01 20:30N 31°36' E 121°19'0 0.2
2016-Dec-01 19:33N 31°36' E 121°19'0 0.0
2016-Dec-01 18:33N 31°36' E 121°19'0 0.0
2016-Dec-01 17:33N 31°36' E 121°19'0 0.1
2016-Dec-01 16:30N 31°36' E 121°19'0 0.3
2016-Dec-01 15:33N 31°36' E 121°19'0 0.1
2016-Dec-01 14:33N 31°36' E 121°19'0 0.1
2016-Dec-01 13:33N 31°36' E 121°19'0 0.0
2016-Dec-01 12:33N 31°36' E 121°19'0 0.0
2016-Dec-01 11:30N 31°36' E 121°19'0 0.0
2016-Dec-01 10:33N 31°36' E 121°19'0 0.0
2016-Dec-01 09:33N 31°36' E 121°19'0 0.2
2016-Dec-01 08:33N 31°36' E 121°19'0 0.2
2016-Dec-01 07:33N 31°36' E 121°19'6 5.9
2016-Dec-01 06:33N 31°31' E 121°23'1110.9
2016-Dec-01 05:33N 31°24' E 121°33'10 9.7
2016-Dec-01 04:33N 31°20' E 121°43'  
Track history (hours):
 
Tides and Currents Weather Stations Pressure Air Temp Water Temp Dewpoint Dewpoint Depression Visibility Wind Speed Wind Dir Waves Ship Positions

Genco Leader

Last reported at 2016-Dec-10 10:18 UTC. Time now 2017-May-24 02:06 UTC.
Position N 39°59' E 119°50'.
Warning: this ship's position is months out of date.

Length 225 m; draft 6.2 m.

Type: Cargo ship. MMSI: 477132000.

Date/timePositionNaut miles runAvg speedWind from/ knotsBaromVisibWave heightAir tempDewpointWater temp
2016-Dec-10 10:18N 39°59' E 119°50'0 0.0
2016-Dec-10 09:30N 39°59' E 119°50'0 0.0
2016-Dec-10 08:32N 39°59' E 119°50'0 0.0
2016-Dec-10 07:32N 39°59' E 119°50'0 0.0
2016-Dec-10 06:20N 39°59' E 119°50'0 0.0
2016-Dec-10 05:32N 39°59' E 119°50'0 0.0
2016-Dec-10 04:08N 39°59' E 119°50'0 0.0
2016-Dec-10 03:26N 39°59' E 119°50'0 0.0
2016-Dec-10 02:32N 39°59' E 119°50'0 0.0
2016-Dec-10 01:32N 39°59' E 119°50'0 0.0
2016-Dec-10 00:32N 39°59' E 119°50'0 0.0
2016-Dec-09 23:32N 39°59' E 119°50'0 0.0
2016-Dec-09 22:32N 39°59' E 119°50'0 0.0
2016-Dec-09 21:26N 39°59' E 119°50'0 0.0
2016-Dec-09 20:32N 39°59' E 119°50'0 0.0
2016-Dec-09 19:32N 39°59' E 119°50'0 0.0
2016-Dec-09 18:32N 39°59' E 119°50'0 0.0
2016-Dec-09 17:32N 39°59' E 119°50'0 0.0
2016-Dec-09 16:32N 39°59' E 119°50'0 0.0
2016-Dec-09 15:26N 39°59' E 119°50'0 0.0
2016-Dec-09 14:32N 39°59' E 119°50'0 0.0
2016-Dec-09 13:32N 39°59' E 119°50'0 0.0
2016-Dec-09 11:32N 39°59' E 119°50'0 0.0
2016-Dec-09 10:32N 39°59' E 119°50'0 0.0
2016-Dec-09 09:32N 39°59' E 119°50'0 0.0
2016-Dec-09 08:32N 39°59' E 119°50'0 0.0
2016-Dec-09 07:26N 39°59' E 119°50'0 0.0
2016-Dec-08 02:33N 39°59' E 119°50'0 0.0
2016-Dec-08 01:28N 39°59' E 119°50'0 0.0
2016-Dec-08 00:33N 39°59' E 119°50'0 0.0
2016-Dec-07 23:27N 39°59' E 119°50'0 0.0
2016-Dec-07 22:33N 39°59' E 119°50'0 0.0
2016-Dec-07 21:33N 39°59' E 119°50'0 0.0
2016-Dec-07 20:33N 39°59' E 119°50'0 0.0
2016-Dec-07 19:33N 39°59' E 119°50'0 0.0
2016-Dec-07 18:33N 39°59' E 119°50'0 0.0
2016-Dec-07 17:33N 39°59' E 119°50'0 0.0
2016-Dec-07 16:27N 39°59' E 119°50'0 0.0
2016-Dec-07 15:33N 39°59' E 119°50'0 0.0
2016-Dec-07 14:33N 39°59' E 119°50'0 0.0
2016-Dec-07 11:10N 39°59' E 119°50'0 0.0
2016-Dec-07 10:21N 39°59' E 119°50'0 0.0
2016-Dec-07 07:30N 39°59' E 119°50'0 0.0
2016-Dec-07 06:30N 39°59' E 119°50'0 0.1
2016-Dec-07 05:33N 39°59' E 119°50'3 2.9
2016-Dec-07 04:33N 39°56' E 119°50'1 0.9
2016-Dec-07 03:33N 39°55' E 119°51'0 0.0
2016-Dec-07 02:33N 39°55' E 119°51'0 0.4
2016-Dec-07 01:33N 39°55' E 119°51'4 4.2
2016-Dec-07 00:33N 39°51' E 119°54'10 9.5
2016-Dec-06 23:33N 39°44' E 120°01'7911.0
2016-Dec-06 16:22N 38°37' E 120°56'8 9.9
2016-Dec-06 15:32N 38°32' E 121°05'10 9.9
2016-Dec-06 14:32N 38°27' E 121°16'10710.3
2016-Dec-06 04:06N 37°12' E 122°53'712.2
2016-Dec-06 03:31N 37°05' E 122°53'1212.4
2016-Dec-06 02:33N 36°53' E 122°53'341 9.1
2016-Dec-04 13:08N 31°15' E 121°55'914.8
2016-Dec-04 12:33N 31°18' E 121°46'1212.2
2016-Dec-04 11:34N 31°24' E 121°33'9 9.4
2016-Dec-04 10:33N 31°30' E 121°25'1110.7
2016-Dec-04 09:34N 31°37' E 121°16'6 5.1
2016-Dec-04 08:29N 31°41' E 121°11'0 0.0
2016-Dec-04 07:32N 31°41' E 121°11'0 0.0
2016-Dec-04 06:32N 31°41' E 121°11'0 0.0
2016-Dec-04 05:32N 31°41' E 121°11'0 0.0
2016-Dec-04 04:32N 31°41' E 121°11'0 0.0
2016-Dec-04 03:32N 31°41' E 121°11'0 0.0
2016-Dec-04 02:32N 31°41' E 121°11'0 0.0
2016-Dec-04 01:32N 31°41' E 121°11'0 0.0
2016-Dec-04 00:32N 31°41' E 121°11'0 0.0
2016-Dec-03 23:29N 31°41' E 121°11'0 0.0
2016-Dec-03 22:32N 31°41' E 121°11'0 0.0
2016-Dec-03 21:29N 31°41' E 121°11'0 0.0
2016-Dec-03 20:32N 31°41' E 121°11'0 0.0
2016-Dec-03 19:26N 31°41' E 121°11'0 0.0
2016-Dec-03 18:32N 31°41' E 121°11'0 0.0
2016-Dec-03 17:32N 31°41' E 121°11'0 0.0
2016-Dec-03 16:29N 31°41' E 121°11'0 0.0
2016-Dec-03 15:26N 31°41' E 121°11'0 0.0
2016-Dec-03 14:29N 31°41' E 121°11'0 0.0
2016-Dec-03 13:32N 31°41' E 121°11'0 0.0
2016-Dec-03 12:32N 31°41' E 121°11'0 0.0
2016-Dec-03 11:29N 31°41' E 121°11'0 0.0
2016-Dec-03 10:32N 31°41' E 121°11'0 0.0
2016-Dec-03 09:29N 31°41' E 121°11'0 0.0
2016-Dec-03 08:23N 31°41' E 121°11'0 0.0
2016-Dec-03 07:12N 31°41' E 121°11'0 0.0
2016-Dec-03 06:30N 31°41' E 121°11'0 0.0
2016-Dec-03 04:29N 31°41' E 121°11'0 0.0
2016-Dec-03 03:29N 31°41' E 121°11'0 0.0
2016-Dec-03 02:32N 31°41' E 121°11'0 0.0
2016-Dec-03 01:32N 31°41' E 121°11'0 0.0
2016-Dec-03 00:33N 31°41' E 121°11'0 0.0
2016-Dec-02 23:32N 31°41' E 121°11'0 0.0
2016-Dec-02 22:29N 31°41' E 121°11'0 0.0
2016-Dec-02 21:32N 31°41' E 121°11'0 0.0
2016-Dec-02 20:32N 31°41' E 121°11'0 0.0
2016-Dec-02 19:33N 31°41' E 121°11'0 0.0
2016-Dec-02 18:29N 31°41' E 121°11'0 0.0
2016-Dec-02 17:32N 31°41' E 121°11'0 0.0
2016-Dec-02 16:32N 31°41' E 121°11'0 0.0
2016-Dec-02 15:32N 31°41' E 121°11'0 0.0
2016-Dec-02 08:30N 31°41' E 121°11'0 0.0
2016-Dec-02 07:21N 31°41' E 121°11'0 0.0
2016-Dec-02 06:30N 31°41' E 121°11'0 0.0
2016-Dec-02 05:30N 31°41' E 121°11'5 4.8
2016-Dec-02 04:33N 31°38' E 121°15'4 3.9
2016-Dec-02 03:30N 31°36' E 121°19'0 0.0
2016-Dec-02 02:30N 31°36' E 121°19'0 0.0
2016-Dec-02 01:33N 31°36' E 121°19'0 0.0
2016-Dec-02 00:33N 31°36' E 121°19'0 0.0
2016-Dec-01 23:33N 31°36' E 121°19'0 0.0
2016-Dec-01 22:30N 31°36' E 121°19'0 0.0
2016-Dec-01 21:30N 31°36' E 121°19'0 0.1
2016-Dec-01 20:30N 31°36' E 121°19'0 0.2
2016-Dec-01 19:33N 31°36' E 121°19'0 0.0
2016-Dec-01 18:33N 31°36' E 121°19'0 0.0
2016-Dec-01 17:33N 31°36' E 121°19'0 0.1
2016-Dec-01 16:30N 31°36' E 121°19'0 0.3
2016-Dec-01 15:33N 31°36' E 121°19'0 0.1
2016-Dec-01 14:33N 31°36' E 121°19'0 0.1
2016-Dec-01 13:33N 31°36' E 121°19'0 0.0
2016-Dec-01 12:33N 31°36' E 121°19'0 0.0
2016-Dec-01 11:30N 31°36' E 121°19'0 0.0
2016-Dec-01 10:33N 31°36' E 121°19'0 0.0
2016-Dec-01 09:33N 31°36' E 121°19'0 0.2
2016-Dec-01 08:33N 31°36' E 121°19'0 0.2
2016-Dec-01 07:33N 31°36' E 121°19'6 5.9
2016-Dec-01 06:33N 31°31' E 121°23'1110.9
2016-Dec-01 05:33N 31°24' E 121°33'10 9.7
2016-Dec-01 04:33N 31°20' E 121°43'  

Dump ship's entire track history